Aleksandr Zhitnik — EMBN — position and weather

sailwx.info

Track history (hours):
 
Tides and Currents Weather Stations Pressure Air Temp Water Temp Dewpoint Dewpoint Depression Visibility Wind Speed Wind Dir Waves Ship Positions

Aleksandr Zhitnik

Last reported at 2017-Oct-04 11:45 UTC. Time now 2017-Oct-20 03:50 UTC.
Position N 47°34' E 034°59'.
Warning: this ship's position is 15 days out of date.

Length 85 m; draft 1.8 m.

MMSI: 272089600.

Date/timePositionNaut miles runAvg speedWind from/ knotsBaromVisibWave heightAir tempDewpointWater temp
2017-Oct-04 11:45N 47°34' E 034°59'1 4.4
2017-Oct-04 11:31N 47°34' E 035°01'2 4.0
2017-Oct-04 11:00N 47°36' E 035°03'2 4.0
2017-Oct-04 10:31N 47°37' E 035°04'6 4.2
2017-Oct-04 08:58N 47°43' E 035°09'2 4.0
2017-Oct-04 08:30N 47°45' E 035°10'2 4.4
2017-Oct-04 08:00N 47°47' E 035°08'2 4.6
2017-Oct-04 07:30N 47°48' E 035°06'3 5.4
2017-Oct-04 07:00N 47°50' E 035°03'1 0.0
2017-Oct-02 10:20N 47°52' E 035°03'0 0.3
2017-Oct-02 10:00N 47°52' E 035°03'9 5.1
2017-Oct-02 08:17N 47°44' E 035°10'2 5.6
2017-Oct-02 08:00N 47°43' E 035°08'3 5.6
2017-Oct-02 07:30N 47°40' E 035°07'3 5.5
2017-Oct-02 07:00N 47°38' E 035°05'3 5.6
2017-Oct-02 06:30N 47°36' E 035°03'8 6.0
2017-Oct-02 05:10N 47°33' E 034°51'1 6.0
2017-Oct-02 04:57N 47°32' E 034°50'  
2017-Sep-29 11:31N 47°34' E 035°01'0 5.0
2017-Sep-29 11:30N 47°34' E 035°01'2 4.5
2017-Sep-29 10:59N 47°36' E 035°03'2 4.7
2017-Sep-29 10:29N 47°38' E 035°05'2 4.8
2017-Sep-29 10:00N 47°40' E 035°07'2 4.8
2017-Sep-29 09:31N 47°42' E 035°08'2 4.6
2017-Sep-29 09:00N 47°44' E 035°10'2 4.8
2017-Sep-29 08:30N 47°46' E 035°09'2 5.0
2017-Sep-29 08:00N 47°48' E 035°06'3 5.7
2017-Sep-29 07:30N 47°50' E 035°03'2 3.6
2017-Sep-29 07:01N 47°52' E 035°03'0 0.0
2017-Sep-29 06:30N 47°52' E 035°03'0 0.0
2017-Sep-29 06:00N 47°52' E 035°03'0 0.0
2017-Sep-29 05:30N 47°52' E 035°03'0 0.0
2017-Sep-29 05:00N 47°52' E 035°03'0 0.0
2017-Sep-29 04:30N 47°52' E 035°03'0 0.0
2017-Sep-29 04:00N 47°52' E 035°03'0 0.0
2017-Sep-29 03:30N 47°52' E 035°03'0 0.0
2017-Sep-29 03:00N 47°52' E 035°03'0 0.0
2017-Sep-29 02:30N 47°52' E 035°03'0 0.0
2017-Sep-29 02:00N 47°52' E 035°03'0 0.0
2017-Sep-29 01:30N 47°52' E 035°03'0 0.0
2017-Sep-29 01:00N 47°52' E 035°03'0 0.0
2017-Sep-29 00:30N 47°52' E 035°03'0 0.0
2017-Sep-29 00:00N 47°52' E 035°03'0 0.0
2017-Sep-28 23:30N 47°52' E 035°03'0 0.0
2017-Sep-28 23:00N 47°52' E 035°03'0 0.0
2017-Sep-28 22:30N 47°52' E 035°03'0 0.0
2017-Sep-28 22:00N 47°52' E 035°03'0 0.0
2017-Sep-28 21:30N 47°52' E 035°03'0 0.0
2017-Sep-28 21:00N 47°52' E 035°03'0 0.0
2017-Sep-28 20:30N 47°52' E 035°03'0 0.0
2017-Sep-28 20:00N 47°52' E 035°03'0 0.0
2017-Sep-28 19:30N 47°52' E 035°03'0 0.0
2017-Sep-28 19:00N 47°52' E 035°03'0 0.0
2017-Sep-28 18:30N 47°52' E 035°03'0 0.0
2017-Sep-28 07:00N 47°52' E 035°03'0 0.0
2017-Sep-28 06:30N 47°52' E 035°03'0 0.0
2017-Sep-28 06:00N 47°52' E 035°03'0 0.0
2017-Sep-28 05:30N 47°52' E 035°03'0 0.0
2017-Sep-28 05:00N 47°52' E 035°03'0 0.0
2017-Sep-28 04:30N 47°52' E 035°03'0 0.0
2017-Sep-28 04:00N 47°52' E 035°03'0 0.0
2017-Sep-28 03:30N 47°52' E 035°03'0 0.0
2017-Sep-28 03:00N 47°52' E 035°03'0 0.0
2017-Sep-28 02:30N 47°52' E 035°03'0 0.0
2017-Sep-28 02:00N 47°52' E 035°03'0 0.0
2017-Sep-28 01:30N 47°52' E 035°03'0 0.0
2017-Sep-28 01:00N 47°52' E 035°03'0 0.0
2017-Sep-28 00:30N 47°52' E 035°03'0 0.0
2017-Sep-28 00:00N 47°52' E 035°03'0 0.0
2017-Sep-27 23:30N 47°52' E 035°03'0 0.0
2017-Sep-27 23:00N 47°52' E 035°03'0 0.0
2017-Sep-27 22:30N 47°52' E 035°03'0 0.0
2017-Sep-27 22:00N 47°52' E 035°03'0 0.0
2017-Sep-27 21:30N 47°52' E 035°03'0 0.0
2017-Sep-27 21:00N 47°52' E 035°03'0 0.0
2017-Sep-27 20:30N 47°52' E 035°03'0 0.0
2017-Sep-27 20:00N 47°52' E 035°03'0 0.0
2017-Sep-27 19:30N 47°52' E 035°03'0 0.0
2017-Sep-27 19:00N 47°52' E 035°03'0 0.0
2017-Sep-27 18:30N 47°52' E 035°03'0 0.0
2017-Sep-27 17:59N 47°52' E 035°03'0 0.0
2017-Sep-27 17:30N 47°52' E 035°03'0 0.0
2017-Sep-27 17:00N 47°52' E 035°03'0 0.0
2017-Sep-27 16:30N 47°52' E 035°03'0 0.0
2017-Sep-27 16:00N 47°52' E 035°03'0 0.0
2017-Sep-27 15:30N 47°52' E 035°03'0 0.0
2017-Sep-27 15:00N 47°52' E 035°03'0 0.0
2017-Sep-27 14:30N 47°52' E 035°03'0 0.0
2017-Sep-27 14:00N 47°52' E 035°03'0 0.0
2017-Sep-27 13:30N 47°52' E 035°03'0 0.0
2017-Sep-27 13:00N 47°52' E 035°03'0 0.0
2017-Sep-27 12:30N 47°52' E 035°03'0 0.0
2017-Sep-27 12:00N 47°52' E 035°03'0 0.0
2017-Sep-27 11:30N 47°52' E 035°03'0 0.0
2017-Sep-27 11:00N 47°52' E 035°03'0 0.0
2017-Sep-27 10:30N 47°52' E 035°03'0 0.0
2017-Sep-27 10:00N 47°52' E 035°03'0 0.0
2017-Sep-27 09:30N 47°52' E 035°03'0 0.0
2017-Sep-27 09:00N 47°52' E 035°03'0 0.0
2017-Sep-27 08:30N 47°52' E 035°03'0 0.0
2017-Sep-27 08:00N 47°52' E 035°03'0 0.0
2017-Sep-27 07:31N 47°52' E 035°03'0 0.3
2017-Sep-27 07:00N 47°52' E 035°03'0 0.0
2017-Sep-27 06:30N 47°52' E 035°03'0 0.0
2017-Sep-27 06:00N 47°52' E 035°03'0 0.0
2017-Sep-27 05:30N 47°52' E 035°03'0 0.0
2017-Sep-27 05:00N 47°52' E 035°03'0 0.0
2017-Sep-27 04:30N 47°52' E 035°03'0 0.0
2017-Sep-27 04:00N 47°52' E 035°03'0 0.0
2017-Sep-27 03:30N 47°52' E 035°03'0 0.0
2017-Sep-27 03:00N 47°52' E 035°03'0 0.0
2017-Sep-27 02:30N 47°52' E 035°03'0 0.0
2017-Sep-27 02:00N 47°52' E 035°03'0 0.0
2017-Sep-27 01:30N 47°52' E 035°03'0 0.0
2017-Sep-27 01:00N 47°52' E 035°03'0 0.0
2017-Sep-27 00:30N 47°52' E 035°03'0 0.0
2017-Sep-27 00:00N 47°52' E 035°03'0 0.0
2017-Sep-26 23:30N 47°52' E 035°03'0 0.0
2017-Sep-26 23:00N 47°52' E 035°03'0 0.0
2017-Sep-26 22:30N 47°52' E 035°03'0 0.0
2017-Sep-26 22:00N 47°52' E 035°03'0 0.0
2017-Sep-26 21:30N 47°52' E 035°03'0 0.0
2017-Sep-26 21:00N 47°52' E 035°03'0 0.0
2017-Sep-26 20:30N 47°52' E 035°03'0 0.0
2017-Sep-26 20:00N 47°52' E 035°03'0 0.0
2017-Sep-26 19:30N 47°52' E 035°03'0 0.0
2017-Sep-26 19:00N 47°52' E 035°03'0 0.0
2017-Sep-26 18:30N 47°52' E 035°03'0 0.0
2017-Sep-26 17:37N 47°52' E 035°03'0 0.0
2017-Sep-26 16:24N 47°52' E 035°03'0 0.0
2017-Sep-26 16:00N 47°52' E 035°03'0 0.0
2017-Sep-26 15:30N 47°52' E 035°03'0 0.0
2017-Sep-26 15:00N 47°52' E 035°03'0 0.0
2017-Sep-26 14:30N 47°52' E 035°03'0 0.0
2017-Sep-26 14:00N 47°52' E 035°03'0 0.0
2017-Sep-26 13:30N 47°52' E 035°03'0 0.0
2017-Sep-26 13:00N 47°52' E 035°03'0 0.0
2017-Sep-26 12:30N 47°52' E 035°03'0 0.0
2017-Sep-26 12:00N 47°52' E 035°03'0 0.0
2017-Sep-26 11:30N 47°52' E 035°03'0 0.0
2017-Sep-26 11:00N 47°52' E 035°03'0 0.0
2017-Sep-26 10:30N 47°52' E 035°03'0 0.0
2017-Sep-26 10:00N 47°52' E 035°03'0 0.0
2017-Sep-26 09:30N 47°52' E 035°03'0 0.1
2017-Sep-26 06:47N 47°52' E 035°03'0 0.0
2017-Sep-26 06:30N 47°52' E 035°03'0 0.0
2017-Sep-26 06:00N 47°52' E 035°03'0 0.0
2017-Sep-26 05:30N 47°52' E 035°03'0 0.0
2017-Sep-26 05:00N 47°52' E 035°03'0 0.0
2017-Sep-26 04:30N 47°52' E 035°03'0 0.0
2017-Sep-26 04:00N 47°52' E 035°03'0 0.0
2017-Sep-26 03:30N 47°52' E 035°03'0 0.0
2017-Sep-26 03:00N 47°52' E 035°03'0 0.0
2017-Sep-26 02:30N 47°52' E 035°03'0 0.1
2017-Sep-26 02:00N 47°52' E 035°03'2 4.6
2017-Sep-26 01:30N 47°49' E 035°04'3 6.2
2017-Sep-26 01:00N 47°47' E 035°07'3 6.0
2017-Sep-26 00:30N 47°45' E 035°10'3 5.6
2017-Sep-26 00:00N 47°42' E 035°08'3 5.7
2017-Sep-25 23:30N 47°39' E 035°07'3 5.5
2017-Sep-25 23:00N 47°37' E 035°04'3 5.4
2017-Sep-25 22:30N 47°35' E 035°02'  
Track history (hours):
 
Tides and Currents Weather Stations Pressure Air Temp Water Temp Dewpoint Dewpoint Depression Visibility Wind Speed Wind Dir Waves Ship Positions

Aleksandr Zhitnik

Last reported at 2017-Oct-04 11:45 UTC. Time now 2017-Oct-20 03:50 UTC.
Position N 47°34' E 034°59'.
Warning: this ship's position is 15 days out of date.

Length 85 m; draft 1.8 m.

MMSI: 272089600.

Date/timePositionNaut miles runAvg speedWind from/ knotsBaromVisibWave heightAir tempDewpointWater temp
2017-Oct-04 11:45N 47°34' E 034°59'1 4.4
2017-Oct-04 11:31N 47°34' E 035°01'2 4.0
2017-Oct-04 11:00N 47°36' E 035°03'2 4.0
2017-Oct-04 10:31N 47°37' E 035°04'6 4.2
2017-Oct-04 08:58N 47°43' E 035°09'2 4.0
2017-Oct-04 08:30N 47°45' E 035°10'2 4.4
2017-Oct-04 08:00N 47°47' E 035°08'2 4.6
2017-Oct-04 07:30N 47°48' E 035°06'3 5.4
2017-Oct-04 07:00N 47°50' E 035°03'1 0.0
2017-Oct-02 10:20N 47°52' E 035°03'0 0.3
2017-Oct-02 10:00N 47°52' E 035°03'9 5.1
2017-Oct-02 08:17N 47°44' E 035°10'2 5.6
2017-Oct-02 08:00N 47°43' E 035°08'3 5.6
2017-Oct-02 07:30N 47°40' E 035°07'3 5.5
2017-Oct-02 07:00N 47°38' E 035°05'3 5.6
2017-Oct-02 06:30N 47°36' E 035°03'8 6.0
2017-Oct-02 05:10N 47°33' E 034°51'1 6.0
2017-Oct-02 04:57N 47°32' E 034°50'  
2017-Sep-29 11:31N 47°34' E 035°01'0 5.0
2017-Sep-29 11:30N 47°34' E 035°01'2 4.5
2017-Sep-29 10:59N 47°36' E 035°03'2 4.7
2017-Sep-29 10:29N 47°38' E 035°05'2 4.8
2017-Sep-29 10:00N 47°40' E 035°07'2 4.8
2017-Sep-29 09:31N 47°42' E 035°08'2 4.6
2017-Sep-29 09:00N 47°44' E 035°10'2 4.8
2017-Sep-29 08:30N 47°46' E 035°09'2 5.0
2017-Sep-29 08:00N 47°48' E 035°06'3 5.7
2017-Sep-29 07:30N 47°50' E 035°03'2 3.6
2017-Sep-29 07:01N 47°52' E 035°03'0 0.0
2017-Sep-29 06:30N 47°52' E 035°03'0 0.0
2017-Sep-29 06:00N 47°52' E 035°03'0 0.0
2017-Sep-29 05:30N 47°52' E 035°03'0 0.0
2017-Sep-29 05:00N 47°52' E 035°03'0 0.0
2017-Sep-29 04:30N 47°52' E 035°03'0 0.0
2017-Sep-29 04:00N 47°52' E 035°03'0 0.0
2017-Sep-29 03:30N 47°52' E 035°03'0 0.0
2017-Sep-29 03:00N 47°52' E 035°03'0 0.0
2017-Sep-29 02:30N 47°52' E 035°03'0 0.0
2017-Sep-29 02:00N 47°52' E 035°03'0 0.0
2017-Sep-29 01:30N 47°52' E 035°03'0 0.0
2017-Sep-29 01:00N 47°52' E 035°03'0 0.0
2017-Sep-29 00:30N 47°52' E 035°03'0 0.0
2017-Sep-29 00:00N 47°52' E 035°03'0 0.0
2017-Sep-28 23:30N 47°52' E 035°03'0 0.0
2017-Sep-28 23:00N 47°52' E 035°03'0 0.0
2017-Sep-28 22:30N 47°52' E 035°03'0 0.0
2017-Sep-28 22:00N 47°52' E 035°03'0 0.0
2017-Sep-28 21:30N 47°52' E 035°03'0 0.0
2017-Sep-28 21:00N 47°52' E 035°03'0 0.0
2017-Sep-28 20:30N 47°52' E 035°03'0 0.0
2017-Sep-28 20:00N 47°52' E 035°03'0 0.0
2017-Sep-28 19:30N 47°52' E 035°03'0 0.0
2017-Sep-28 19:00N 47°52' E 035°03'0 0.0
2017-Sep-28 18:30N 47°52' E 035°03'0 0.0
2017-Sep-28 07:00N 47°52' E 035°03'0 0.0
2017-Sep-28 06:30N 47°52' E 035°03'0 0.0
2017-Sep-28 06:00N 47°52' E 035°03'0 0.0
2017-Sep-28 05:30N 47°52' E 035°03'0 0.0
2017-Sep-28 05:00N 47°52' E 035°03'0 0.0
2017-Sep-28 04:30N 47°52' E 035°03'0 0.0
2017-Sep-28 04:00N 47°52' E 035°03'0 0.0
2017-Sep-28 03:30N 47°52' E 035°03'0 0.0
2017-Sep-28 03:00N 47°52' E 035°03'0 0.0
2017-Sep-28 02:30N 47°52' E 035°03'0 0.0
2017-Sep-28 02:00N 47°52' E 035°03'0 0.0
2017-Sep-28 01:30N 47°52' E 035°03'0 0.0
2017-Sep-28 01:00N 47°52' E 035°03'0 0.0
2017-Sep-28 00:30N 47°52' E 035°03'0 0.0
2017-Sep-28 00:00N 47°52' E 035°03'0 0.0
2017-Sep-27 23:30N 47°52' E 035°03'0 0.0
2017-Sep-27 23:00N 47°52' E 035°03'0 0.0
2017-Sep-27 22:30N 47°52' E 035°03'0 0.0
2017-Sep-27 22:00N 47°52' E 035°03'0 0.0
2017-Sep-27 21:30N 47°52' E 035°03'0 0.0
2017-Sep-27 21:00N 47°52' E 035°03'0 0.0
2017-Sep-27 20:30N 47°52' E 035°03'0 0.0
2017-Sep-27 20:00N 47°52' E 035°03'0 0.0
2017-Sep-27 19:30N 47°52' E 035°03'0 0.0
2017-Sep-27 19:00N 47°52' E 035°03'0 0.0
2017-Sep-27 18:30N 47°52' E 035°03'0 0.0
2017-Sep-27 17:59N 47°52' E 035°03'0 0.0
2017-Sep-27 17:30N 47°52' E 035°03'0 0.0
2017-Sep-27 17:00N 47°52' E 035°03'0 0.0
2017-Sep-27 16:30N 47°52' E 035°03'0 0.0
2017-Sep-27 16:00N 47°52' E 035°03'0 0.0
2017-Sep-27 15:30N 47°52' E 035°03'0 0.0
2017-Sep-27 15:00N 47°52' E 035°03'0 0.0
2017-Sep-27 14:30N 47°52' E 035°03'0 0.0
2017-Sep-27 14:00N 47°52' E 035°03'0 0.0
2017-Sep-27 13:30N 47°52' E 035°03'0 0.0
2017-Sep-27 13:00N 47°52' E 035°03'0 0.0
2017-Sep-27 12:30N 47°52' E 035°03'0 0.0
2017-Sep-27 12:00N 47°52' E 035°03'0 0.0
2017-Sep-27 11:30N 47°52' E 035°03'0 0.0
2017-Sep-27 11:00N 47°52' E 035°03'0 0.0
2017-Sep-27 10:30N 47°52' E 035°03'0 0.0
2017-Sep-27 10:00N 47°52' E 035°03'0 0.0
2017-Sep-27 09:30N 47°52' E 035°03'0 0.0
2017-Sep-27 09:00N 47°52' E 035°03'0 0.0
2017-Sep-27 08:30N 47°52' E 035°03'0 0.0
2017-Sep-27 08:00N 47°52' E 035°03'0 0.0
2017-Sep-27 07:31N 47°52' E 035°03'0 0.3
2017-Sep-27 07:00N 47°52' E 035°03'0 0.0
2017-Sep-27 06:30N 47°52' E 035°03'0 0.0
2017-Sep-27 06:00N 47°52' E 035°03'0 0.0
2017-Sep-27 05:30N 47°52' E 035°03'0 0.0
2017-Sep-27 05:00N 47°52' E 035°03'0 0.0
2017-Sep-27 04:30N 47°52' E 035°03'0 0.0
2017-Sep-27 04:00N 47°52' E 035°03'0 0.0
2017-Sep-27 03:30N 47°52' E 035°03'0 0.0
2017-Sep-27 03:00N 47°52' E 035°03'0 0.0
2017-Sep-27 02:30N 47°52' E 035°03'0 0.0
2017-Sep-27 02:00N 47°52' E 035°03'0 0.0
2017-Sep-27 01:30N 47°52' E 035°03'0 0.0
2017-Sep-27 01:00N 47°52' E 035°03'0 0.0
2017-Sep-27 00:30N 47°52' E 035°03'0 0.0
2017-Sep-27 00:00N 47°52' E 035°03'0 0.0
2017-Sep-26 23:30N 47°52' E 035°03'0 0.0
2017-Sep-26 23:00N 47°52' E 035°03'0 0.0
2017-Sep-26 22:30N 47°52' E 035°03'0 0.0
2017-Sep-26 22:00N 47°52' E 035°03'0 0.0
2017-Sep-26 21:30N 47°52' E 035°03'0 0.0
2017-Sep-26 21:00N 47°52' E 035°03'0 0.0
2017-Sep-26 20:30N 47°52' E 035°03'0 0.0
2017-Sep-26 20:00N 47°52' E 035°03'0 0.0
2017-Sep-26 19:30N 47°52' E 035°03'0 0.0
2017-Sep-26 19:00N 47°52' E 035°03'0 0.0
2017-Sep-26 18:30N 47°52' E 035°03'0 0.0
2017-Sep-26 17:37N 47°52' E 035°03'0 0.0
2017-Sep-26 16:24N 47°52' E 035°03'0 0.0
2017-Sep-26 16:00N 47°52' E 035°03'0 0.0
2017-Sep-26 15:30N 47°52' E 035°03'0 0.0
2017-Sep-26 15:00N 47°52' E 035°03'0 0.0
2017-Sep-26 14:30N 47°52' E 035°03'0 0.0
2017-Sep-26 14:00N 47°52' E 035°03'0 0.0
2017-Sep-26 13:30N 47°52' E 035°03'0 0.0
2017-Sep-26 13:00N 47°52' E 035°03'0 0.0
2017-Sep-26 12:30N 47°52' E 035°03'0 0.0
2017-Sep-26 12:00N 47°52' E 035°03'0 0.0
2017-Sep-26 11:30N 47°52' E 035°03'0 0.0
2017-Sep-26 11:00N 47°52' E 035°03'0 0.0
2017-Sep-26 10:30N 47°52' E 035°03'0 0.0
2017-Sep-26 10:00N 47°52' E 035°03'0 0.0
2017-Sep-26 09:30N 47°52' E 035°03'0 0.1
2017-Sep-26 06:47N 47°52' E 035°03'0 0.0
2017-Sep-26 06:30N 47°52' E 035°03'0 0.0
2017-Sep-26 06:00N 47°52' E 035°03'0 0.0
2017-Sep-26 05:30N 47°52' E 035°03'0 0.0
2017-Sep-26 05:00N 47°52' E 035°03'0 0.0
2017-Sep-26 04:30N 47°52' E 035°03'0 0.0
2017-Sep-26 04:00N 47°52' E 035°03'0 0.0
2017-Sep-26 03:30N 47°52' E 035°03'0 0.0
2017-Sep-26 03:00N 47°52' E 035°03'0 0.0
2017-Sep-26 02:30N 47°52' E 035°03'0 0.1
2017-Sep-26 02:00N 47°52' E 035°03'2 4.6
2017-Sep-26 01:30N 47°49' E 035°04'3 6.2
2017-Sep-26 01:00N 47°47' E 035°07'3 6.0
2017-Sep-26 00:30N 47°45' E 035°10'3 5.6
2017-Sep-26 00:00N 47°42' E 035°08'3 5.7
2017-Sep-25 23:30N 47°39' E 035°07'3 5.5
2017-Sep-25 23:00N 47°37' E 035°04'3 5.4
2017-Sep-25 22:30N 47°35' E 035°02'  

Dump ship's entire track history